There are multiple Weather-warnings   Click here for more information


Meteo18 Weather Cam more information Meteo18 Weather Cam


warning for Thunderstorms more information blitzortung!


Rain radar more information rain snow radar


Visit our other weather sites:

Template documentation
and downloads

And another site



Weather Underground History page Text

Daily Summary for May 30, 2017 Units:  English    Metric   Both
« Previous Day
Next Day »
Daily Weekly Monthly Yearly Custom
  High: Low: Average:
Temperature: 74.5 °F 61.2 °F 66.7 °F
Dew Point: 63.7 °F 57.4 °F 60.8 °F
Humidity: 96 % 63 % 82 %
Wind Speed: 10 mph 0 mph 1.9 mph
Wind Gust: 12 mph - -
Wind:- - WSW
Pressure: 30.2 in 30 in -
Precipitation: 0.21 in    
Historical Graphs
 
 
Tabular Data for May 30, 2017
Time Temperature Dew Point Pressure Wind Wind Speed Wind Gust Humidity Rainfall Rate (Hourly)
00:02 66.7 °F 57.7 °F 30 in Calm     73 % 0 in
00:12 66.7 °F 58.1 °F 30 in Calm     74 % 0 in
00:17 66.7 °F 58.6 °F 30 in WNW 1 mph   75 % 0 in
00:22 66.6 °F 58.5 °F 30 in Calm     75 % 0 in
00:32 66.6 °F 58.8 °F 30 in Calm   2 mph 76 % 0 in
00:42 66.7 °F 59 °F 30 in Calm   2 mph 76 % 0 in
00:52 66.6 °F 59.2 °F 30 in Calm   2 mph 77 % 0 in
00:57 66.6 °F 59.2 °F 30 in Calm   3 mph 77 % 0 in
01:02 66.4 °F 59 °F 30 in Calm   4 mph 77 % 0 in
01:07 66.2 °F 59.2 °F 30 in Calm   4 mph 78 % 0 in
01:12 66 °F 59 °F 30 in Calm   4 mph 78 % 0 in
01:17 65.8 °F 58.8 °F 30 in Calm   1 mph 78 % 0 in
01:22 65.8 °F 58.8 °F 30 in Calm     78 % 0 in
01:27 65.8 °F 59.2 °F 30 in Calm     79 % 0 in
01:32 65.5 °F 59.2 °F 30 in WNW 1 mph 1 mph 80 % 0 in
01:37 64.9 °F 59 °F 30 in WNW 1 mph 1 mph 81 % 0 in
01:42 64.6 °F 59 °F 30 in West 1 mph 3 mph 82 % 0 in
01:52 64.9 °F 59.4 °F 30 in Calm   3 mph 82 % 0 in
01:57 64.9 °F 59.4 °F 30 in Calm   3 mph 82 % 0 in
02:02 64.9 °F 59 °F 30 in Calm   3 mph 81 % 0 in
02:07 64.8 °F 59.2 °F 30 in Calm   2 mph 82 % 0 in
02:17 64.2 °F 59 °F 30 in West 1 mph 1 mph 83 % 0 in
02:22 64.6 °F 59 °F 30 in Calm     82 % 0 in
02:32 64.2 °F 59 °F 30 in West 1 mph 3 mph 83 % 0 in
02:42 64.6 °F 59 °F 30 in Calm   3 mph 82 % 0 in
02:47 64.6 °F 59.4 °F 30 in Calm   2 mph 83 % 0 in
02:52 64.2 °F 59 °F 30 in Calm   1 mph 83 % 0 in
02:57 64 °F 59.2 °F 30 in SE 1 mph 1 mph 84 % 0 in
03:02 63.9 °F 59 °F 30 in SE 1 mph 2 mph 84 % 0 in
03:12 64 °F 59.4 °F 30 in Calm   2 mph 85 % 0 in
03:17 64 °F 59.4 °F 30 in SW 2 mph 2 mph 85 % 0 in
03:22 63.9 °F 59.2 °F 30 in SSW 3 mph 3 mph 85 % 0 in
03:32 64.4 °F 59.5 °F 30 in SW 3 mph 7 mph 84 % 0 in
03:42 64.6 °F 59.9 °F 30 in WNW 3 mph 7 mph 85 % 0 in
03:47 64.2 °F 59.9 °F 30 in WSW 3 mph 6 mph 86 % 0 in
03:52 63.9 °F 59.9 °F 30 in West 2 mph 6 mph 87 % 0 in
03:57 63.5 °F 59.9 °F 30 in WSW 4 mph 6 mph 88 % 0 in
04:02 63.3 °F 60.1 °F 30 in West 1 mph 6 mph 89 % 0 in
04:07 63.3 °F 60.1 °F 30 in West 1 mph 5 mph 89 % 0.01 in
04:12 63.3 °F 60.1 °F 30 in West 1 mph 5 mph 89 % 0.01 in
04:17 63.1 °F 59.9 °F 30 in NW 1 mph 5 mph 89 % 0.01 in
04:22 63.1 °F 60.1 °F 30 in West 2 mph 5 mph 90 % 0.01 in
04:32 63 °F 60.3 °F 30 in SW 1 mph 6 mph 91 % 0.01 in
04:42 63 °F 60.3 °F 30 in NW 3 mph 5 mph 91 % 0.01 in
04:47 63 °F 60.3 °F 30 in Calm   5 mph 91 % 0.01 in
04:52 62.8 °F 60.4 °F 30 in SSW 2 mph 5 mph 92 % 0.01 in
04:57 62.8 °F 60.4 °F 30 in WNW 1 mph 5 mph 92 % 0.01 in
05:02 62.6 °F 60.3 °F 30 in WSW 1 mph 4 mph 92 % 0.05 in
05:12 62.4 °F 60.4 °F 30 in Calm   3 mph 93 % 0.06 in
05:17 62.4 °F 60.4 °F 30 in Calm   3 mph 93 % 0.06 in
05:22 62.2 °F 60.3 °F 30 in Calm   2 mph 93 % 0.06 in
05:32 62.2 °F 60.4 °F 30.1 in Calm   2 mph 94 % 0.07 in
05:42 62.1 °F 60.3 °F 30.1 in WSW 2 mph 2 mph 94 % 0.08 in
05:52 61.7 °F 59.9 °F 30 in South 1 mph 3 mph 94 % 0.09 in
06:02 61.7 °F 59.9 °F 30 in Calm   3 mph 94 % 0.09 in
06:12 61.5 °F 60.1 °F 30 in Calm   2 mph 95 % 0.09 in
06:17 61.5 °F 59.7 °F 30 in Calm   2 mph 94 % 0.09 in
06:22 61.3 °F 59.9 °F 30.1 in SSE 2 mph   95 % 0.11 in
06:32 61.3 °F 59.9 °F 30 in SW 1 mph   95 % 0.11 in
06:37 61.3 °F 59.9 °F 30 in Calm   4 mph 95 % 0.13 in
06:42 61.2 °F 59.7 °F 30 in Calm   4 mph 95 % 0.13 in
06:47 61.2 °F 59.7 °F 30 in South 1 mph 4 mph 95 % 0.13 in
06:52 61.2 °F 59.7 °F 30.1 in SSW 1 mph 2 mph 95 % 0.08 in
07:02 61.3 °F 60.3 °F 30.1 in Calm   2 mph 96 % 0.08 in
07:12 61.3 °F 60.3 °F 30.1 in Calm   2 mph 96 % 0.05 in
07:17 61.3 °F 60.3 °F 30.1 in Calm   2 mph 96 % 0.05 in
07:22 61.3 °F 60.3 °F 30.1 in Calm   2 mph 96 % 0.02 in
07:32 61.3 °F 60.3 °F 30.1 in Calm   2 mph 96 % 0.01 in
07:42 61.3 °F 60.3 °F 30.1 in SW 1 mph 1 mph 96 % 0 in
07:52 61.5 °F 60.4 °F 30.1 in WSW 2 mph 2 mph 96 % 0 in
07:57 61.3 °F 60.3 °F 30.1 in SW 2 mph 2 mph 96 % 0 in
08:02 61.5 °F 60.4 °F 30.1 in SW 4 mph 6 mph 96 % 0 in
08:07 61.5 °F 60.4 °F 30.1 in SSW 4 mph 6 mph 96 % 0 in
08:12 61.7 °F 60.6 °F 30.1 in SW 3 mph 6 mph 96 % 0 in
08:17 61.7 °F 60.6 °F 30.1 in Calm   6 mph 96 % 0 in
08:22 61.9 °F 60.8 °F 30.1 in Calm   5 mph 96 % 0 in
08:27 61.9 °F 60.8 °F 30.1 in SSW 1 mph 5 mph 96 % 0 in
08:32 61.9 °F 60.8 °F 30.1 in SW 2 mph 4 mph 96 % 0 in
08:42 62.1 °F 61 °F 30.1 in SW 1 mph 4 mph 96 % 0 in
08:47 62.1 °F 61 °F 30.1 in SSW 2 mph 4 mph 96 % 0 in
08:52 62.1 °F 61 °F 30.1 in WSW 2 mph 4 mph 96 % 0 in
08:57 62.1 °F 61 °F 30.1 in WSW 3 mph 4 mph 96 % 0 in
09:02 62.1 °F 61 °F 30.1 in SW 2 mph 5 mph 96 % 0 in
09:12 62.2 °F 61.2 °F 30.1 in SW 2 mph 5 mph 96 % 0.01 in
09:17 62.4 °F 61 °F 30.1 in SSW 1 mph 5 mph 95 % 0.01 in
09:22 62.2 °F 60.8 °F 30.1 in West 1 mph 5 mph 95 % 0.01 in
09:32 62.4 °F 61 °F 30.1 in Calm   4 mph 95 % 0.01 in
09:37 62.8 °F 61.3 °F 30.1 in Calm   4 mph 95 % 0.01 in
09:42 63.1 °F 61.7 °F 30.1 in Calm   4 mph 95 % 0.01 in
09:47 63.1 °F 61.3 °F 30.1 in Calm   4 mph 94 % 0.01 in
09:52 63.5 °F 61.7 °F 30.1 in WSW 4 mph 4 mph 94 % 0.01 in
09:57 63.5 °F 61.5 °F 30.1 in SW 3 mph 3 mph 93 % 0.01 in
10:02 63.9 °F 61.9 °F 30.1 in SW 4 mph 6 mph 93 % 0.01 in
10:12 64.2 °F 62.2 °F 30.1 in SSW 2 mph 6 mph 93 % 0 in
10:17 64.6 °F 62.2 °F 30.1 in South 3 mph 6 mph 92 % 0 in
10:22 64.8 °F 62.4 °F 30.1 in WSW 2 mph 6 mph 92 % 0 in
10:32 65.5 °F 63.1 °F 30.1 in SSW 1 mph 5 mph 92 % 0 in
10:42 66 °F 62.4 °F 30.1 in SW 3 mph 5 mph 88 % 0 in
10:52 65.8 °F 62.4 °F 30.1 in WSW 3 mph 7 mph 89 % 0 in
10:57 66 °F 63 °F 30.1 in West 1 mph 7 mph 90 % 0 in
11:02 66 °F 62.4 °F 30.1 in WSW 1 mph 7 mph 88 % 0 in
11:07 66.4 °F 63 °F 30.1 in WSW 1 mph 7 mph 89 % 0 in
11:12 66.6 °F 62.6 °F 30.1 in West 1 mph 4 mph 87 % 0 in
11:22 66.6 °F 62.2 °F 30.1 in SW 3 mph 5 mph 86 % 0 in
11:32 66.7 °F 62.8 °F 30.1 in SW 1 mph 7 mph 87 % 0 in
11:42 66.6 °F 61.9 °F 30.1 in SW 3 mph 7 mph 85 % 0 in
11:47 66.6 °F 61.5 °F 30.1 in SW 4 mph 7 mph 84 % 0 in
11:52 66.7 °F 62.4 °F 30.1 in SW 1 mph 8 mph 86 % 0 in
11:57 66.7 °F 62.4 °F 30.1 in SW 3 mph 8 mph 86 % 0 in
12:02 66.6 °F 61.9 °F 30.1 in South 2 mph 7 mph 85 % 0 in
12:12 66.6 °F 62.2 °F 30.1 in SW 4 mph 6 mph 86 % 0 in
12:17 66.7 °F 62.8 °F 30.1 in WSW 1 mph 6 mph 87 % 0 in
12:22 67.3 °F 62.2 °F 30.1 in WNW 4 mph 6 mph 84 % 0 in
12:32 68.5 °F 62.8 °F 30.1 in WNW 4 mph 6 mph 82 % 0 in
12:37 69.1 °F 63.3 °F 30.1 in SSW 3 mph 6 mph 82 % 0 in
12:42 69.1 °F 61.9 °F 30.1 in West 7 mph 7 mph 78 % 0 in
12:47 69.1 °F 61.9 °F 30.1 in WSW 3 mph 6 mph 78 % 0 in
12:52 69.3 °F 63.1 °F 30.1 in WNW 3 mph 7 mph 81 % 0 in
13:02 68.7 °F 62.6 °F 30.1 in WNW 6 mph 7 mph 81 % 0 in
13:12 68 °F 62.6 °F 30.1 in WSW 2 mph 9 mph 83 % 0 in
13:17 67.8 °F 62.1 °F 30.1 in West 4 mph 9 mph 82 % 0 in
13:22 68 °F 61.5 °F 30.1 in West 4 mph 8 mph 80 % 0 in
13:32 68.4 °F 62.2 °F 30.1 in WNW 5 mph 9 mph 81 % 0 in
13:42 69.1 °F 62.2 °F 30.1 in WNW 3 mph 8 mph 79 % 0 in
13:52 69.4 °F 61.5 °F 30.1 in SW 2 mph 8 mph 76 % 0 in
14:02 70.7 °F 61.7 °F 30.1 in West 4 mph 8 mph 73 % 0 in
14:07 70.9 °F 62.6 °F 30.1 in WNW 1 mph 8 mph 75 % 0 in
14:12 71.2 °F 61 °F 30.1 in SW 4 mph 7 mph 70 % 0 in
14:17 71.6 °F 62.1 °F 30.1 in SSW 2 mph 7 mph 72 % 0 in
14:22 72.1 °F 62.2 °F 30.1 in West 5 mph 7 mph 71 % 0 in
14:27 72 °F 62.8 °F 30.1 in West 1 mph 8 mph 73 % 0 in
14:32 72 °F 62.8 °F 30.1 in SW 3 mph 8 mph 73 % 0 in
14:42 72.1 °F 62.6 °F 30.1 in West 6 mph 8 mph 72 % 0 in
14:47 72.3 °F 62.1 °F 30.1 in West 3 mph 9 mph 70 % 0 in
14:52 72.3 °F 61.5 °F 30.1 in South 3 mph 9 mph 69 % 0 in
15:02 73 °F 61.9 °F 30.1 in WNW 4 mph 10 mph 68 % 0 in
15:07 73.2 °F 62.4 °F 30.1 in WNW 3 mph 10 mph 69 % 0 in
15:17 73.2 °F 63.3 °F 30.1 in West 5 mph 11 mph 71 % 0 in
15:22 73.2 °F 63.7 °F 30.1 in WSW 5 mph 11 mph 72 % 0 in
15:32 73 °F 62.2 °F 30.1 in WSW 5 mph 9 mph 69 % 0 in
15:37 72.7 °F 61.9 °F 30.1 in SW 3 mph 12 mph 69 % 0 in
15:42 72.5 °F 61.3 °F 30.1 in West 3 mph 12 mph 68 % 0 in
15:47 72.5 °F 62.6 °F 30.1 in WNW 7 mph 12 mph 71 % 0 in
15:52 72.1 °F 62.6 °F 30.1 in NNW 3 mph 12 mph 72 % 0 in
15:57 72 °F 62.4 °F 30.1 in SSW 4 mph 8 mph 72 % 0 in
16:02 72.1 °F 62.2 °F 30.1 in NNW 2 mph 9 mph 71 % 0 in
16:12 72.9 °F 63.3 °F 30.1 in WSW 3 mph 9 mph 72 % 0 in
16:17 72.7 °F 62.8 °F 30.1 in Calm   7 mph 71 % 0 in
16:22 73 °F 62.2 °F 30.1 in WNW 2 mph 7 mph 69 % 0 in
16:27 72.7 °F 61.5 °F 30.1 in WNW 4 mph 7 mph 68 % 0 in
16:32 72.3 °F 62.1 °F 30.1 in West 3 mph 6 mph 70 % 0 in
16:42 72.3 °F 61.5 °F 30.1 in WNW 1 mph 6 mph 69 % 0 in
16:47 72.7 °F 61.9 °F 30.1 in NW 3 mph 5 mph 69 % 0 in
16:52 73 °F 62.2 °F 30.1 in Calm   5 mph 69 % 0 in
16:57 74.1 °F 62.1 °F 30.1 in WSW 6 mph 6 mph 66 % 0 in
17:02 73.8 °F 60.4 °F 30.1 in West 8 mph 8 mph 63 % 0 in
17:12 74.5 °F 61.5 °F 30.1 in West 2 mph 9 mph 64 % 0 in
17:17 73.8 °F 61.7 °F 30.1 in NW 4 mph 9 mph 66 % 0 in
17:22 73 °F 61.9 °F 30.1 in WNW 3 mph 8 mph 68 % 0 in
17:32 72.7 °F 62.2 °F 30.1 in West 2 mph 7 mph 70 % 0 in
17:42 73.2 °F 62.4 °F 30.1 in NNW 4 mph 7 mph 69 % 0 in
17:52 73 °F 61.9 °F 30.1 in Calm   7 mph 68 % 0 in
17:57 72.7 °F 61.5 °F 30.1 in WNW 1 mph 6 mph 68 % 0 in
18:02 72.3 °F 62.1 °F 30.1 in WNW 1 mph 6 mph 70 % 0 in
18:07 72.5 °F 62.2 °F 30.1 in West 1 mph 6 mph 70 % 0 in
18:12 72.3 °F 61.2 °F 30.1 in NNW 4 mph 6 mph 68 % 0 in
18:17 72.3 °F 62.1 °F 30.1 in WNW 7 mph 7 mph 70 % 0 in
18:22 72.3 °F 61.5 °F 30.1 in West 4 mph 7 mph 69 % 0 in
18:32 73.2 °F 62.1 °F 30.1 in NW 4 mph 9 mph 68 % 0 in
18:37 73.6 °F 61.9 °F 30.1 in SW 2 mph 8 mph 67 % 0 in
18:42 73.8 °F 62.1 °F 30.1 in NW 2 mph 8 mph 67 % 0 in
18:52 73.6 °F 61.5 °F 30.1 in NW 6 mph 8 mph 66 % 0 in
18:57 73.2 °F 60.3 °F 30.1 in NNW 10 mph 10 mph 64 % 0 in
19:02 73 °F 60.6 °F 30.1 in North 4 mph 10 mph 65 % 0 in
19:12 72.9 °F 60.8 °F 30.1 in WNW 4 mph 11 mph 66 % 0 in
19:17 72.5 °F 61 °F 30.1 in NNW 5 mph 11 mph 67 % 0 in
19:22 72.1 °F 61 °F 30.1 in North 4 mph 10 mph 68 % 0 in
19:32 71.2 °F 60.1 °F 30.1 in NNW 2 mph 9 mph 68 % 0 in
19:42 70.5 °F 60.3 °F 30.1 in NW 2 mph 10 mph 70 % 0 in
19:47 70.3 °F 60.4 °F 30.1 in NNW 2 mph 9 mph 71 % 0 in
19:52 70.3 °F 60.8 °F 30.1 in North 3 mph 9 mph 72 % 0 in
20:02 70.3 °F 61.7 °F 30.1 in North 2 mph 7 mph 74 % 0 in
20:12 70.2 °F 61.2 °F 30.1 in NW 3 mph 6 mph 73 % 0 in
20:17 70 °F 61.3 °F 30.1 in NNE 1 mph 5 mph 74 % 0 in
20:22 69.8 °F 61.5 °F 30.1 in NNW 1 mph 5 mph 75 % 0 in
20:27 69.8 °F 61.5 °F 30.1 in North 2 mph 5 mph 75 % 0 in
20:42 69.6 °F 61.3 °F 30.1 in North 1 mph 4 mph 75 % 0 in
20:47 69.4 °F 61.2 °F 30.1 in Calm   4 mph 75 % 0 in
20:52 69.3 °F 61 °F 30.1 in NW 2 mph 4 mph 75 % 0 in
20:57 69.3 °F 61.3 °F 30.1 in West 1 mph 3 mph 76 % 0 in
21:02 69.1 °F 61.2 °F 30.1 in Calm   3 mph 76 % 0 in
21:12 68.4 °F 61.2 °F 30.1 in Calm   3 mph 78 % 0 in
21:17 68 °F 60.8 °F 30.1 in Calm   3 mph 78 % 0 in
21:22 67.6 °F 60.6 °F 30.1 in Calm   2 mph 78 % 0 in
21:27 67.5 °F 60.8 °F 30.1 in Calm   2 mph 79 % 0 in
21:32 67.3 °F 60.6 °F 30.1 in Calm   4 mph 79 % 0 in
21:37 66.9 °F 60.6 °F 30.1 in Calm   4 mph 80 % 0 in
21:47 66.6 °F 60.6 °F 30.1 in NNE 1 mph 1 mph 81 % 0 in
21:52 66 °F 60.4 °F 30.1 in Calm   1 mph 82 % 0 in
21:57 66 °F 60.4 °F 30.2 in Calm   2 mph 82 % 0 in
22:02 65.8 °F 60.3 °F 30.2 in Calm   2 mph 82 % 0 in
22:12 65.5 °F 60.3 °F 30.2 in Calm   2 mph 83 % 0 in
22:17 65.5 °F 60.3 °F 30.2 in Calm   1 mph 83 % 0 in
22:22 65.1 °F 60.1 °F 30.2 in Calm     84 % 0 in
22:32 64.9 °F 59.9 °F 30.2 in NW 1 mph 4 mph 84 % 0 in
22:42 64.6 °F 59.7 °F 30.2 in Calm   4 mph 84 % 0 in
22:47 64.4 °F 59.5 °F 30.2 in NNW 1 mph 4 mph 84 % 0 in
22:52 64.2 °F 59.4 °F 30.2 in WNW 1 mph 4 mph 84 % 0 in
22:57 64.2 °F 59 °F 30.2 in NNW 1 mph 3 mph 83 % 0 in
23:02 64.2 °F 59 °F 30.2 in NE 4 mph 4 mph 83 % 0 in
23:12 64 °F 58.8 °F 30.2 in Calm   6 mph 83 % 0 in
23:17 63.9 °F 58.6 °F 30.2 in Calm   6 mph 83 % 0 in
23:22 63.9 °F 58.6 °F 30.2 in NNW 1 mph 6 mph 83 % 0 in
23:32 63.7 °F 58.5 °F 30.2 in North 1 mph 6 mph 83 % 0 in
23:42 63.9 °F 58.3 °F 30.2 in NNW 2 mph 5 mph 82 % 0 in
23:47 63.7 °F 58.1 °F 30.2 in NNW 2 mph 3 mph 82 % 0 in
23:52 63.5 °F 57.9 °F 30.2 in NNW 1 mph 3 mph 82 % 0 in
23:57 63.3 °F 57.4 °F 30.2 in NW 1 mph 3 mph 81 % 0 in
Meteo18
Compliments of Weather Underground - 4 mb

Script developed by  Jim McMurry - jmcmurry@mwt.net Adapted for the template by  Wim van der Kuil - Leuven-Template.eu

You find our weather info also at:

European Weather Network

Weather Underground

Equipment we use:

Weather-station
Davis Vue

Weather-program
Meteohub

Weather-server
Raspberry PI 2 B+

Provider
1 and 1

Davis Vue

Meteohub

Raspberry PI 2 B+

1 and 1